Cornersburg, Ohio
Current Conditions -  °F | °C
As of 11:51 AM on Sunday 23 Nov 2014 (Local Time) from KYNG Reporting Station
Overcast Overcast  
Wind Chill: 50°   Ceiling: 2600
Heat Index: 50°   Visibility: 10mi
Dew Point: 37°   Wind: 6mph
Humidity: 61%   Direction: 120°ESE
Pressure: 30"   Gusts: NA
Location:  41.0691°N, 80.6969°W
Report Text: KYNG 231651Z 12005KT 10SM BKN026 BKN100 OVC170 10/03 A3000 RMK AO2 SLP163 T01000028
Loading
Personal Weather Stations






























Interactive Weather Map New forecast layout! Learn more

10-Day Weather Forecast

Advertisements
Track Severe Weather on mobile